sim
Sign-in with your pilot id or email,
or register
Callsign
Passwort

Schedule Details

Flight Number: DLH1710 (1)
Departure: Munich Airport (EDDM) at 15:05
Arrival: Dubrovnik Airport (LDDU) at 16:40
Route: Lufthansa Passenger Schedule. Enter filed route here before submitting Pirep.

Weather Information
Getting current METAR information for EDDM 211150Z 04004KT 330V110 CAVOK 22/13 Q1016 NOSIG
Getting current METAR information for LDDU 211200Z 17008KT 140V210 9999 FEW025 25/16 Q1017 NOSIG

Schedule Frequency

Route Map